National Weather Service United States Department of Commerce

Active Weather Pattern in the West and into the Central U.S.

A series of weather systems will bring locally heavy rain, 1 to 3 feet of mountain snow, and strong winds up to 75 mph across the western states. Later this weekend and early next week, a strong low pressure system will spread wintry conditions and strong winds from the Plains into the Upper Midwest. Strengthening winds in the Southern Plains will increase fire weather threats. Warmer in the east. Read More >

Terminal Forecast for MSP Airport



923
FTUS43 KMPX 181720
TAFMSP
TAF
KMSP 181720Z 1818/1924 24009KT P6SM SCT250
FM190000 19005KT P6SM BKN250
FM190900 18004KT P6SM BKN200
FM191500 17007KT P6SM BKN150=

CCFP Forecasts (click for larger image)

 

 


Convective Planning Forecast